sensor_id;sensor_type;location;lat;lon;timestamp;P1;durP1;ratioP1;P2;durP2;ratioP2
2035;SDS011;23642;42.658;23.350;2024-03-22T00:02:09;104.70;;;98.40;;
2035;SDS011;23642;42.658;23.350;2024-03-22T00:04:51;105.70;;;98.63;;
2035;SDS011;23642;42.658;23.350;2024-03-22T00:07:35;105.27;;;98.40;;
2035;SDS011;23642;42.658;23.350;2024-03-22T00:10:39;108.25;;;101.55;;
2035;SDS011;23642;42.658;23.350;2024-03-22T00:13:09;112.17;;;104.57;;
2035;SDS011;23642;42.658;23.350;2024-03-22T00:15:58;114.63;;;106.53;;
2035;SDS011;23642;42.658;23.350;2024-03-22T00:18:27;115.40;;;107.40;;
2035;SDS011;23642;42.658;23.350;2024-03-22T00:20:56;114.47;;;106.60;;
2035;SDS011;23642;42.658;23.350;2024-03-22T00:23:32;114.20;;;105.70;;
2035;SDS011;23642;42.658;23.350;2024-03-22T00:29:31;115.50;;;107.17;;
2035;SDS011;23642;42.658;23.350;2024-03-22T00:32:23;113.67;;;106.10;;
2035;SDS011;23642;42.658;23.350;2024-03-22T00:35:01;114.20;;;106.60;;
2035;SDS011;23642;42.658;23.350;2024-03-22T00:37:38;114.80;;;107.07;;
2035;SDS011;23642;42.658;23.350;2024-03-22T00:40:14;113.80;;;106.00;;
2035;SDS011;23642;42.658;23.350;2024-03-22T00:42:43;113.17;;;105.33;;
2035;SDS011;23642;42.658;23.350;2024-03-22T00:45:31;117.57;;;109.30;;
2035;SDS011;23642;42.658;23.350;2024-03-22T00:51:01;118.70;;;109.70;;
2035;SDS011;23642;42.658;23.350;2024-03-22T00:53:45;116.87;;;108.90;;
2035;SDS011;23642;42.658;23.350;2024-03-22T00:59:46;121.18;;;111.63;;
2035;SDS011;23642;42.658;23.350;2024-03-22T01:02:46;120.03;;;111.10;;
2035;SDS011;23642;42.658;23.350;2024-03-22T01:11:05;115.70;;;108.40;;
2035;SDS011;23642;42.658;23.350;2024-03-22T01:13:52;118.93;;;109.60;;
2035;SDS011;23642;42.658;23.350;2024-03-22T01:16:43;112.67;;;104.93;;
2035;SDS011;23642;42.658;23.350;2024-03-22T01:19:29;116.63;;;108.15;;
2035;SDS011;23642;42.658;23.350;2024-03-22T01:22:20;114.77;;;107.40;;
2035;SDS011;23642;42.658;23.350;2024-03-22T01:25:29;116.40;;;108.93;;
2035;SDS011;23642;42.658;23.350;2024-03-22T01:27:59;114.23;;;107.10;;
2035;SDS011;23642;42.658;23.350;2024-03-22T01:31:29;114.33;;;107.23;;
2035;SDS011;23642;42.658;23.350;2024-03-22T01:33:34;114.80;;;107.60;;
2035;SDS011;23642;42.658;23.350;2024-03-22T01:36:08;112.77;;;105.43;;
2035;SDS011;23642;42.658;23.350;2024-03-22T01:38:52;110.40;;;103.40;;
2035;SDS011;23642;42.658;23.350;2024-03-22T01:44:32;114.67;;;107.53;;
2035;SDS011;23642;42.658;23.350;2024-03-22T01:47:20;113.03;;;105.60;;
2035;SDS011;23642;42.658;23.350;2024-03-22T01:49:50;113.90;;;106.90;;
2035;SDS011;23642;42.658;23.350;2024-03-22T01:52:27;113.90;;;106.80;;
2035;SDS011;23642;42.658;23.350;2024-03-22T01:55:27;112.50;;;105.30;;
2035;SDS011;23642;42.658;23.350;2024-03-22T01:58:15;112.87;;;105.80;;
2035;SDS011;23642;42.658;23.350;2024-03-22T02:01:09;113.90;;;106.60;;
2035;SDS011;23642;42.658;23.350;2024-03-22T02:03:44;114.10;;;107.30;;
2035;SDS011;23642;42.658;23.350;2024-03-22T02:06:30;114.77;;;107.60;;
2035;SDS011;23642;42.658;23.350;2024-03-22T02:09:18;112.80;;;106.10;;
2035;SDS011;23642;42.658;23.350;2024-03-22T02:12:00;114.07;;;107.00;;
2035;SDS011;23642;42.658;23.350;2024-03-22T02:14:46;114.90;;;107.87;;
2035;SDS011;23642;42.658;23.350;2024-03-22T02:17:30;112.47;;;105.47;;
2035;SDS011;23642;42.658;23.350;2024-03-22T02:20:38;111.67;;;104.67;;
2035;SDS011;23642;42.658;23.350;2024-03-22T02:26:15;117.33;;;109.90;;
2035;SDS011;23642;42.658;23.350;2024-03-22T02:28:58;112.87;;;106.00;;
2035;SDS011;23642;42.658;23.350;2024-03-22T02:31:51;116.35;;;108.65;;
2035;SDS011;23642;42.658;23.350;2024-03-22T02:34:23;118.20;;;109.63;;
2035;SDS011;23642;42.658;23.350;2024-03-22T02:36:58;116.53;;;108.35;;
2035;SDS011;23642;42.658;23.350;2024-03-22T02:39:57;119.57;;;111.23;;
2035;SDS011;23642;42.658;23.350;2024-03-22T02:42:28;118.13;;;110.13;;
2035;SDS011;23642;42.658;23.350;2024-03-22T02:45:03;118.57;;;110.90;;
2035;SDS011;23642;42.658;23.350;2024-03-22T02:47:45;117.50;;;108.88;;
2035;SDS011;23642;42.658;23.350;2024-03-22T02:50:19;118.93;;;111.20;;
2035;SDS011;23642;42.658;23.350;2024-03-22T02:52:59;120.70;;;112.60;;
2035;SDS011;23642;42.658;23.350;2024-03-22T03:05:54;121.67;;;113.37;;
2035;SDS011;23642;42.658;23.350;2024-03-22T03:08:39;121.37;;;113.10;;
2035;SDS011;23642;42.658;23.350;2024-03-22T03:11:57;124.53;;;116.23;;
2035;SDS011;23642;42.658;23.350;2024-03-22T03:14:58;123.93;;;115.40;;
2035;SDS011;23642;42.658;23.350;2024-03-22T03:17:37;125.23;;;116.60;;
2035;SDS011;23642;42.658;23.350;2024-03-22T03:20:59;126.67;;;118.40;;
2035;SDS011;23642;42.658;23.350;2024-03-22T03:23:47;129.50;;;120.70;;
2035;SDS011;23642;42.658;23.350;2024-03-22T03:26:37;128.67;;;119.47;;
2035;SDS011;23642;42.658;23.350;2024-03-22T03:29:38;128.13;;;119.17;;
2035;SDS011;23642;42.658;23.350;2024-03-22T03:32:38;127.67;;;118.97;;
2035;SDS011;23642;42.658;23.350;2024-03-22T03:48:51;125.37;;;116.90;;
2035;SDS011;23642;42.658;23.350;2024-03-22T03:51:40;126.90;;;118.30;;
2035;SDS011;23642;42.658;23.350;2024-03-22T03:54:31;129.48;;;120.80;;
2035;SDS011;23642;42.658;23.350;2024-03-22T03:57:02;126.30;;;117.57;;
2035;SDS011;23642;42.658;23.350;2024-03-22T04:00:06;130.27;;;121.47;;
2035;SDS011;23642;42.658;23.350;2024-03-22T04:03:16;125.10;;;116.47;;
2035;SDS011;23642;42.658;23.350;2024-03-22T04:19:18;122.17;;;114.57;;
2035;SDS011;23642;42.658;23.350;2024-03-22T04:25:25;120.00;;;112.57;;
2035;SDS011;23642;42.658;23.350;2024-03-22T04:28:16;123.60;;;115.70;;
2035;SDS011;23642;42.658;23.350;2024-03-22T04:31:03;125.93;;;117.87;;
2035;SDS011;23642;42.658;23.350;2024-03-22T04:34:01;120.77;;;112.60;;
2035;SDS011;23642;42.658;23.350;2024-03-22T04:36:41;125.47;;;117.50;;
2035;SDS011;23642;42.658;23.350;2024-03-22T04:40:17;128.23;;;119.90;;
2035;SDS011;23642;42.658;23.350;2024-03-22T04:43:25;125.93;;;117.53;;
2035;SDS011;23642;42.658;23.350;2024-03-22T04:45:51;124.10;;;116.30;;
2035;SDS011;23642;42.658;23.350;2024-03-22T04:48:54;126.63;;;118.43;;
2035;SDS011;23642;42.658;23.350;2024-03-22T04:51:43;124.27;;;116.27;;
2035;SDS011;23642;42.658;23.350;2024-03-22T04:54:19;125.67;;;117.87;;
2035;SDS011;23642;42.658;23.350;2024-03-22T04:56:54;126.13;;;118.03;;
2035;SDS011;23642;42.658;23.350;2024-03-22T04:59:35;126.55;;;118.40;;
2035;SDS011;23642;42.658;23.350;2024-03-22T05:02:36;123.23;;;114.50;;
2035;SDS011;23642;42.658;23.350;2024-03-22T05:08:36;127.67;;;118.30;;
2035;SDS011;23642;42.658;23.350;2024-03-22T05:11:22;129.75;;;120.45;;
2035;SDS011;23642;42.658;23.350;2024-03-22T05:14:11;129.73;;;120.47;;
2035;SDS011;23642;42.658;23.350;2024-03-22T05:16:47;127.13;;;117.93;;
2035;SDS011;23642;42.658;23.350;2024-03-22T05:19:57;124.32;;;115.88;;
2035;SDS011;23642;42.658;23.350;2024-03-22T05:22:49;125.97;;;117.47;;
2035;SDS011;23642;42.658;23.350;2024-03-22T05:32:21;124.93;;;116.82;;
2035;SDS011;23642;42.658;23.350;2024-03-22T05:35:30;127.80;;;119.60;;
2035;SDS011;23642;42.658;23.350;2024-03-22T05:37:58;127.67;;;118.93;;
2035;SDS011;23642;42.658;23.350;2024-03-22T05:41:05;128.20;;;119.37;;
2035;SDS011;23642;42.658;23.350;2024-03-22T05:43:56;130.17;;;120.47;;
2035;SDS011;23642;42.658;23.350;2024-03-22T05:46:26;127.07;;;119.00;;
2035;SDS011;23642;42.658;23.350;2024-03-22T05:49:15;127.40;;;118.80;;
2035;SDS011;23642;42.658;23.350;2024-03-22T05:52:00;130.70;;;121.97;;
2035;SDS011;23642;42.658;23.350;2024-03-22T05:54:33;129.53;;;121.13;;
2035;SDS011;23642;42.658;23.350;2024-03-22T05:57:31;130.40;;;121.57;;
2035;SDS011;23642;42.658;23.350;2024-03-22T06:00:40;129.87;;;120.57;;
2035;SDS011;23642;42.658;23.350;2024-03-22T06:03:29;134.73;;;124.20;;
2035;SDS011;23642;42.658;23.350;2024-03-22T06:09:10;129.10;;;120.40;;
2035;SDS011;23642;42.658;23.350;2024-03-22T06:11:50;132.60;;;122.50;;
2035;SDS011;23642;42.658;23.350;2024-03-22T06:14:33;130.02;;;121.20;;
2035;SDS011;23642;42.658;23.350;2024-03-22T06:17:15;128.52;;;120.25;;
2035;SDS011;23642;42.658;23.350;2024-03-22T06:20:05;131.20;;;122.53;;
2035;SDS011;23642;42.658;23.350;2024-03-22T06:22:51;129.50;;;120.72;;
2035;SDS011;23642;42.658;23.350;2024-03-22T06:28:59;133.23;;;122.83;;
2035;SDS011;23642;42.658;23.350;2024-03-22T06:31:30;130.47;;;121.03;;
2035;SDS011;23642;42.658;23.350;2024-03-22T06:34:18;128.83;;;120.43;;
2035;SDS011;23642;42.658;23.350;2024-03-22T06:36:58;128.47;;;120.07;;
2035;SDS011;23642;42.658;23.350;2024-03-22T06:39:39;128.70;;;120.00;;
2035;SDS011;23642;42.658;23.350;2024-03-22T06:42:08;130.20;;;121.30;;
2035;SDS011;23642;42.658;23.350;2024-03-22T06:44:53;128.63;;;120.13;;
2035;SDS011;23642;42.658;23.350;2024-03-22T06:47:41;130.20;;;121.57;;
2035;SDS011;23642;42.658;23.350;2024-03-22T06:50:15;130.73;;;121.60;;
2035;SDS011;23642;42.658;23.350;2024-03-22T06:53:03;130.97;;;122.40;;
2035;SDS011;23642;42.658;23.350;2024-03-22T06:55:57;128.03;;;119.83;;
2035;SDS011;23642;42.658;23.350;2024-03-22T06:58:25;128.83;;;119.93;;
2035;SDS011;23642;42.658;23.350;2024-03-22T07:00:54;126.70;;;118.70;;
2035;SDS011;23642;42.658;23.350;2024-03-22T07:03:37;126.80;;;118.70;;
2035;SDS011;23642;42.658;23.350;2024-03-22T07:06:27;123.20;;;115.67;;
2035;SDS011;23642;42.658;23.350;2024-03-22T07:09:00;122.67;;;115.30;;
2035;SDS011;23642;42.658;23.350;2024-03-22T07:11:44;122.97;;;115.50;;
2035;SDS011;23642;42.658;23.350;2024-03-22T07:14:14;124.30;;;116.80;;
2035;SDS011;23642;42.658;23.350;2024-03-22T07:16:46;121.97;;;115.07;;
2035;SDS011;23642;42.658;23.350;2024-03-22T07:22:36;131.53;;;122.90;;
2035;SDS011;23642;42.658;23.350;2024-03-22T07:25:50;128.87;;;120.63;;
2035;SDS011;23642;42.658;23.350;2024-03-22T07:28:22;126.00;;;118.60;;
2035;SDS011;23642;42.658;23.350;2024-03-22T07:34:36;126.50;;;118.55;;
2035;SDS011;23642;42.658;23.350;2024-03-22T07:51:12;126.30;;;118.80;;
2035;SDS011;23642;42.658;23.350;2024-03-22T07:53:40;124.83;;;117.40;;
2035;SDS011;23642;42.658;23.350;2024-03-22T07:59:00;123.80;;;116.27;;
2035;SDS011;23642;42.658;23.350;2024-03-22T08:02:13;125.93;;;117.90;;
2035;SDS011;23642;42.658;23.350;2024-03-22T08:04:58;122.80;;;114.63;;
2035;SDS011;23642;42.658;23.350;2024-03-22T08:07:36;126.80;;;118.55;;
2035;SDS011;23642;42.658;23.350;2024-03-22T08:10:28;126.63;;;118.78;;
2035;SDS011;23642;42.658;23.350;2024-03-22T08:13:09;127.27;;;118.90;;
2035;SDS011;23642;42.658;23.350;2024-03-22T08:16:17;124.23;;;116.93;;
2035;SDS011;23642;42.658;23.350;2024-03-22T08:19:33;128.93;;;120.60;;
2035;SDS011;23642;42.658;23.350;2024-03-22T08:22:37;131.20;;;123.10;;
2035;SDS011;23642;42.658;23.350;2024-03-22T08:28:41;127.60;;;119.57;;
2035;SDS011;23642;42.658;23.350;2024-03-22T08:31:22;128.27;;;120.47;;
2035;SDS011;23642;42.658;23.350;2024-03-22T08:34:27;129.00;;;121.23;;
2035;SDS011;23642;42.658;23.350;2024-03-22T08:37:28;125.27;;;117.90;;
2035;SDS011;23642;42.658;23.350;2024-03-22T08:46:50;125.87;;;118.47;;
2035;SDS011;23642;42.658;23.350;2024-03-22T08:49:29;128.23;;;120.63;;
2035;SDS011;23642;42.658;23.350;2024-03-22T08:52:30;121.03;;;113.93;;
2035;SDS011;23642;42.658;23.350;2024-03-22T08:58:29;123.30;;;115.70;;
2035;SDS011;23642;42.658;23.350;2024-03-22T09:01:19;123.65;;;115.53;;
2035;SDS011;23642;42.658;23.350;2024-03-22T09:04:14;123.77;;;115.87;;
2035;SDS011;23642;42.658;23.350;2024-03-22T09:13:54;121.50;;;114.10;;
2035;SDS011;23642;42.658;23.350;2024-03-22T09:17:04;122.80;;;115.22;;
2035;SDS011;23642;42.658;23.350;2024-03-22T09:27:34;123.63;;;115.93;;
2035;SDS011;23642;42.658;23.350;2024-03-22T09:33:45;119.50;;;112.10;;
2035;SDS011;23642;42.658;23.350;2024-03-22T09:36:55;116.68;;;109.07;;
2035;SDS011;23642;42.658;23.350;2024-03-22T09:46:35;118.57;;;111.77;;
2035;SDS011;23642;42.658;23.350;2024-03-22T09:49:07;116.40;;;109.80;;
2035;SDS011;23642;42.658;23.350;2024-03-22T09:52:12;117.63;;;110.73;;
2035;SDS011;23642;42.658;23.350;2024-03-22T09:55:05;120.17;;;113.17;;
2035;SDS011;23642;42.658;23.350;2024-03-22T09:58:22;116.90;;;110.00;;
2035;SDS011;23642;42.658;23.350;2024-03-22T10:01:01;118.33;;;111.50;;
2035;SDS011;23642;42.658;23.350;2024-03-22T10:03:54;120.73;;;113.33;;
2035;SDS011;23642;42.658;23.350;2024-03-22T10:10:00;120.50;;;112.03;;
2035;SDS011;23642;42.658;23.350;2024-03-22T10:29:29;120.97;;;113.50;;
2035;SDS011;23642;42.658;23.350;2024-03-22T10:32:13;120.00;;;113.03;;
2035;SDS011;23642;42.658;23.350;2024-03-22T10:35:42;119.00;;;112.03;;
2035;SDS011;23642;42.658;23.350;2024-03-22T10:38:25;120.07;;;112.97;;
2035;SDS011;23642;42.658;23.350;2024-03-22T10:40:58;118.17;;;111.23;;
2035;SDS011;23642;42.658;23.350;2024-03-22T10:43:29;117.10;;;109.57;;
2035;SDS011;23642;42.658;23.350;2024-03-22T10:46:01;120.40;;;113.50;;
2035;SDS011;23642;42.658;23.350;2024-03-22T10:49:08;118.20;;;111.23;;
2035;SDS011;23642;42.658;23.350;2024-03-22T10:51:43;118.88;;;111.88;;
2035;SDS011;23642;42.658;23.350;2024-03-22T10:54:17;118.10;;;111.10;;
2035;SDS011;23642;42.658;23.350;2024-03-22T10:56:56;121.97;;;113.67;;
2035;SDS011;23642;42.658;23.350;2024-03-22T10:59:34;121.57;;;114.37;;
2035;SDS011;23642;42.658;23.350;2024-03-22T11:02:09;120.10;;;112.80;;
2035;SDS011;23642;42.658;23.350;2024-03-22T11:04:56;120.07;;;112.77;;
2035;SDS011;23642;42.658;23.350;2024-03-22T11:07:26;119.20;;;111.30;;
2035;SDS011;23642;42.658;23.350;2024-03-22T11:10:09;119.63;;;112.63;;
2035;SDS011;23642;42.658;23.350;2024-03-22T11:12:38;116.53;;;109.47;;
2035;SDS011;23642;42.658;23.350;2024-03-22T11:15:10;117.33;;;110.13;;
2035;SDS011;23642;42.658;23.350;2024-03-22T11:18:00;118.87;;;112.07;;
2035;SDS011;23642;42.658;23.350;2024-03-22T11:20:31;116.90;;;110.00;;
2035;SDS011;23642;42.658;23.350;2024-03-22T11:23:22;121.33;;;113.93;;
2035;SDS011;23642;42.658;23.350;2024-03-22T11:26:05;122.63;;;115.40;;
2035;SDS011;23642;42.658;23.350;2024-03-22T11:31:49;119.40;;;112.50;;
2035;SDS011;23642;42.658;23.350;2024-03-22T11:34:36;117.72;;;110.28;;
2035;SDS011;23642;42.658;23.350;2024-03-22T11:37:24;117.77;;;110.87;;
2035;SDS011;23642;42.658;23.350;2024-03-22T11:39:53;115.60;;;108.90;;
2035;SDS011;23642;42.658;23.350;2024-03-22T11:42:21;115.47;;;108.77;;
2035;SDS011;23642;42.658;23.350;2024-03-22T11:44:53;117.37;;;110.47;;
2035;SDS011;23642;42.658;23.350;2024-03-22T11:47:23;115.37;;;108.57;;
2035;SDS011;23642;42.658;23.350;2024-03-22T11:53:48;118.35;;;110.85;;
2035;SDS011;23642;42.658;23.350;2024-03-22T11:56:28;120.23;;;112.80;;
2035;SDS011;23642;42.658;23.350;2024-03-22T11:59:13;120.87;;;113.10;;
2035;SDS011;23642;42.658;23.350;2024-03-22T12:05:40;120.00;;;112.60;;
2035;SDS011;23642;42.658;23.350;2024-03-22T12:08:44;118.17;;;111.17;;
2035;SDS011;23642;42.658;23.350;2024-03-22T12:11:49;115.87;;;108.17;;
2035;SDS011;23642;42.658;23.350;2024-03-22T12:20:36;117.20;;;110.10;;
2035;SDS011;23642;42.658;23.350;2024-03-22T12:23:57;115.33;;;108.60;;
2035;SDS011;23642;42.658;23.350;2024-03-22T12:33:47;122.17;;;114.67;;
2035;SDS011;23642;42.658;23.350;2024-03-22T12:36:58;119.43;;;112.03;;
2035;SDS011;23642;42.658;23.350;2024-03-22T12:40:13;118.20;;;111.40;;
2035;SDS011;23642;42.658;23.350;2024-03-22T12:46:53;121.57;;;114.28;;
2035;SDS011;23642;42.658;23.350;2024-03-22T12:49:49;121.93;;;114.53;;
2035;SDS011;23642;42.658;23.350;2024-03-22T12:55:43;119.17;;;112.07;;
2035;SDS011;23642;42.658;23.350;2024-03-22T13:02:07;115.93;;;109.00;;
2035;SDS011;23642;42.658;23.350;2024-03-22T13:11:42;118.70;;;111.70;;
2035;SDS011;23642;42.658;23.350;2024-03-22T13:14:31;120.20;;;112.93;;
2035;SDS011;23642;42.658;23.350;2024-03-22T13:17:48;120.37;;;113.03;;
2035;SDS011;23642;42.658;23.350;2024-03-22T13:21:14;119.90;;;112.70;;
2035;SDS011;23642;42.658;23.350;2024-03-22T13:27:34;119.30;;;112.30;;
2035;SDS011;23642;42.658;23.350;2024-03-22T13:30:38;116.67;;;109.87;;
2035;SDS011;23642;42.658;23.350;2024-03-22T13:33:25;118.30;;;111.40;;
2035;SDS011;23642;42.658;23.350;2024-03-22T13:36:14;115.93;;;109.13;;
2035;SDS011;23642;42.658;23.350;2024-03-22T13:39:23;118.20;;;111.10;;
2035;SDS011;23642;42.658;23.350;2024-03-22T13:42:11;119.77;;;112.60;;
2035;SDS011;23642;42.658;23.350;2024-03-22T13:44:42;115.10;;;107.90;;
2035;SDS011;23642;42.658;23.350;2024-03-22T13:47:49;115.63;;;108.63;;
2035;SDS011;23642;42.658;23.350;2024-03-22T13:50:41;119.03;;;111.90;;
2035;SDS011;23642;42.658;23.350;2024-03-22T13:53:09;115.25;;;108.03;;
2035;SDS011;23642;42.658;23.350;2024-03-22T13:55:59;116.50;;;109.47;;
2035;SDS011;23642;42.658;23.350;2024-03-22T13:58:43;118.00;;;110.93;;
2035;SDS011;23642;42.658;23.350;2024-03-22T14:01:16;116.87;;;109.80;;
2035;SDS011;23642;42.658;23.350;2024-03-22T14:03:44;117.83;;;110.43;;
2035;SDS011;23642;42.658;23.350;2024-03-22T14:06:13;118.00;;;110.90;;
2035;SDS011;23642;42.658;23.350;2024-03-22T14:09:24;117.37;;;110.20;;
2035;SDS011;23642;42.658;23.350;2024-03-22T14:12:01;119.37;;;112.10;;
2035;SDS011;23642;42.658;23.350;2024-03-22T14:14:38;119.50;;;112.17;;
2035;SDS011;23642;42.658;23.350;2024-03-22T14:19:59;114.77;;;107.63;;
2035;SDS011;23642;42.658;23.350;2024-03-22T14:23:02;118.80;;;111.60;;
2035;SDS011;23642;42.658;23.350;2024-03-22T14:25:46;119.20;;;111.83;;
2035;SDS011;23642;42.658;23.350;2024-03-22T14:28:16;120.10;;;112.67;;
2035;SDS011;23642;42.658;23.350;2024-03-22T14:30:57;117.00;;;110.00;;
2035;SDS011;23642;42.658;23.350;2024-03-22T14:34:08;119.20;;;112.10;;
2035;SDS011;23642;42.658;23.350;2024-03-22T14:36:53;118.00;;;110.27;;
2035;SDS011;23642;42.658;23.350;2024-03-22T14:43:15;118.30;;;111.00;;
2035;SDS011;23642;42.658;23.350;2024-03-22T14:48:50;118.60;;;111.40;;
2035;SDS011;23642;42.658;23.350;2024-03-22T14:57:21;114.80;;;107.70;;
2035;SDS011;23642;42.658;23.350;2024-03-22T15:00:17;119.47;;;112.00;;
2035;SDS011;23642;42.658;23.350;2024-03-22T15:03:19;118.40;;;110.90;;
2035;SDS011;23642;42.658;23.350;2024-03-22T15:06:29;120.20;;;113.00;;
2035;SDS011;23642;42.658;23.350;2024-03-22T15:09:17;118.60;;;111.47;;
2035;SDS011;23642;42.658;23.350;2024-03-22T15:23:11;115.53;;;108.13;;
2035;SDS011;23642;42.658;23.350;2024-03-22T15:26:02;120.70;;;112.63;;
2035;SDS011;23642;42.658;23.350;2024-03-22T15:29:12;119.37;;;111.40;;
2035;SDS011;23642;42.658;23.350;2024-03-22T15:38:33;116.00;;;108.63;;
2035;SDS011;23642;42.658;23.350;2024-03-22T15:47:34;116.00;;;109.00;;
2035;SDS011;23642;42.658;23.350;2024-03-22T15:50:48;117.10;;;109.80;;
2035;SDS011;23642;42.658;23.350;2024-03-22T15:57:10;116.63;;;109.40;;
2035;SDS011;23642;42.658;23.350;2024-03-22T16:00:44;118.17;;;110.97;;
2035;SDS011;23642;42.658;23.350;2024-03-22T16:03:20;118.40;;;111.20;;
2035;SDS011;23642;42.658;23.350;2024-03-22T16:05:52;121.03;;;112.93;;
2035;SDS011;23642;42.658;23.350;2024-03-22T16:08:27;117.80;;;110.10;;
2035;SDS011;23642;42.658;23.350;2024-03-22T16:11:09;118.17;;;110.27;;
2035;SDS011;23642;42.658;23.350;2024-03-22T16:13:36;116.55;;;109.35;;
2035;SDS011;23642;42.658;23.350;2024-03-22T16:16:19;116.10;;;108.90;;
2035;SDS011;23642;42.658;23.350;2024-03-22T16:19:01;116.43;;;108.83;;
2035;SDS011;23642;42.658;23.350;2024-03-22T16:21:38;117.03;;;109.73;;
2035;SDS011;23642;42.658;23.350;2024-03-22T16:24:38;116.37;;;109.20;;
2035;SDS011;23642;42.658;23.350;2024-03-22T16:27:16;116.70;;;109.40;;
2035;SDS011;23642;42.658;23.350;2024-03-22T16:29:53;115.50;;;108.00;;
2035;SDS011;23642;42.658;23.350;2024-03-22T16:32:23;120.40;;;112.30;;
2035;SDS011;23642;42.658;23.350;2024-03-22T16:35:01;117.07;;;109.40;;
2035;SDS011;23642;42.658;23.350;2024-03-22T16:37:41;116.97;;;109.03;;
2035;SDS011;23642;42.658;23.350;2024-03-22T16:40:29;115.35;;;108.25;;
2035;SDS011;23642;42.658;23.350;2024-03-22T16:45:53;118.73;;;110.40;;
2035;SDS011;23642;42.658;23.350;2024-03-22T16:49:10;117.50;;;110.00;;
2035;SDS011;23642;42.658;23.350;2024-03-22T16:52:16;113.68;;;106.47;;
2035;SDS011;23642;42.658;23.350;2024-03-22T16:54:56;116.60;;;109.00;;
2035;SDS011;23642;42.658;23.350;2024-03-22T16:57:26;115.17;;;107.80;;
2035;SDS011;23642;42.658;23.350;2024-03-22T17:00:19;116.87;;;108.93;;
2035;SDS011;23642;42.658;23.350;2024-03-22T17:02:54;114.27;;;106.90;;
2035;SDS011;23642;42.658;23.350;2024-03-22T17:06:01;115.57;;;107.73;;
2035;SDS011;23642;42.658;23.350;2024-03-22T17:08:45;117.43;;;109.15;;
2035;SDS011;23642;42.658;23.350;2024-03-22T17:11:36;115.33;;;107.90;;
2035;SDS011;23642;42.658;23.350;2024-03-22T17:14:18;114.32;;;106.93;;
2035;SDS011;23642;42.658;23.350;2024-03-22T17:20:25;113.47;;;106.37;;
2035;SDS011;23642;42.658;23.350;2024-03-22T17:23:05;114.00;;;106.93;;
2035;SDS011;23642;42.658;23.350;2024-03-22T17:25:41;112.63;;;105.60;;
2035;SDS011;23642;42.658;23.350;2024-03-22T17:28:33;113.97;;;105.87;;
2035;SDS011;23642;42.658;23.350;2024-03-22T17:31:16;111.38;;;104.47;;
2035;SDS011;23642;42.658;23.350;2024-03-22T17:34:02;112.22;;;104.80;;
2035;SDS011;23642;42.658;23.350;2024-03-22T17:39:40;111.60;;;104.00;;
2035;SDS011;23642;42.658;23.350;2024-03-22T17:42:13;111.27;;;104.07;;
2035;SDS011;23642;42.658;23.350;2024-03-22T17:44:46;111.97;;;104.97;;
2035;SDS011;23642;42.658;23.350;2024-03-22T17:47:33;113.57;;;106.13;;
2035;SDS011;23642;42.658;23.350;2024-03-22T17:51:10;114.67;;;106.20;;
2035;SDS011;23642;42.658;23.350;2024-03-22T17:53:37;115.30;;;107.30;;
2035;SDS011;23642;42.658;23.350;2024-03-22T17:56:24;114.40;;;106.57;;
2035;SDS011;23642;42.658;23.350;2024-03-22T17:59:12;118.03;;;109.10;;
2035;SDS011;23642;42.658;23.350;2024-03-22T18:01:59;116.80;;;108.70;;
2035;SDS011;23642;42.658;23.350;2024-03-22T18:04:51;115.73;;;107.30;;
2035;SDS011;23642;42.658;23.350;2024-03-22T18:07:50;114.57;;;106.72;;
2035;SDS011;23642;42.658;23.350;2024-03-22T18:14:23;115.13;;;106.83;;
2035;SDS011;23642;42.658;23.350;2024-03-22T18:17:09;116.65;;;108.65;;
2035;SDS011;23642;42.658;23.350;2024-03-22T18:19:57;112.80;;;105.57;;
2035;SDS011;23642;42.658;23.350;2024-03-22T18:22:52;117.72;;;107.82;;
2035;SDS011;23642;42.658;23.350;2024-03-22T18:26:09;113.03;;;105.90;;
2035;SDS011;23642;42.658;23.350;2024-03-22T18:29:34;111.50;;;104.20;;
2035;SDS011;23642;42.658;23.350;2024-03-22T18:32:31;110.87;;;103.80;;
2035;SDS011;23642;42.658;23.350;2024-03-22T18:35:08;111.20;;;104.20;;
2035;SDS011;23642;42.658;23.350;2024-03-22T18:37:43;110.60;;;104.00;;
2035;SDS011;23642;42.658;23.350;2024-03-22T18:40:25;112.23;;;103.80;;
2035;SDS011;23642;42.658;23.350;2024-03-22T18:43:13;113.07;;;105.57;;
2035;SDS011;23642;42.658;23.350;2024-03-22T18:45:45;111.77;;;104.43;;
2035;SDS011;23642;42.658;23.350;2024-03-22T18:48:17;112.23;;;104.50;;
2035;SDS011;23642;42.658;23.350;2024-03-22T18:50:57;111.17;;;103.43;;
2035;SDS011;23642;42.658;23.350;2024-03-22T18:53:32;113.53;;;105.80;;
2035;SDS011;23642;42.658;23.350;2024-03-22T18:56:00;114.53;;;106.73;;
2035;SDS011;23642;42.658;23.350;2024-03-22T18:58:29;108.70;;;101.23;;
2035;SDS011;23642;42.658;23.350;2024-03-22T19:04:04;112.37;;;105.40;;
2035;SDS011;23642;42.658;23.350;2024-03-22T19:06:52;116.63;;;108.80;;
2035;SDS011;23642;42.658;23.350;2024-03-22T19:11:37;116.85;;;107.95;;
2035;SDS011;23642;42.658;23.350;2024-03-22T19:12:56;118.38;;;110.28;;
2035;SDS011;23642;42.658;23.350;2024-03-22T19:15:44;118.30;;;110.53;;
2035;SDS011;23642;42.658;23.350;2024-03-22T19:21:43;115.27;;;107.83;;
2035;SDS011;23642;42.658;23.350;2024-03-22T19:24:12;116.50;;;108.20;;
2035;SDS011;23642;42.658;23.350;2024-03-22T19:27:00;118.37;;;109.93;;
2035;SDS011;23642;42.658;23.350;2024-03-22T19:29:33;118.37;;;109.63;;
2035;SDS011;23642;42.658;23.350;2024-03-22T19:32:18;119.37;;;111.20;;
2035;SDS011;23642;42.658;23.350;2024-03-22T19:35:05;117.00;;;108.63;;
2035;SDS011;23642;42.658;23.350;2024-03-22T19:40:30;121.30;;;112.50;;
2035;SDS011;23642;42.658;23.350;2024-03-22T19:43:10;116.97;;;109.47;;
2035;SDS011;23642;42.658;23.350;2024-03-22T19:45:56;117.13;;;108.45;;
2035;SDS011;23642;42.658;23.350;2024-03-22T19:48:31;118.23;;;110.43;;
2035;SDS011;23642;42.658;23.350;2024-03-22T19:54:15;122.23;;;113.83;;
2035;SDS011;23642;42.658;23.350;2024-03-22T19:56:48;119.85;;;111.45;;
2035;SDS011;23642;42.658;23.350;2024-03-22T20:00:13;117.50;;;110.10;;
2035;SDS011;23642;42.658;23.350;2024-03-22T20:03:21;114.53;;;107.70;;
2035;SDS011;23642;42.658;23.350;2024-03-22T20:06:40;118.20;;;110.10;;
2035;SDS011;23642;42.658;23.350;2024-03-22T20:09:45;116.83;;;109.40;;
2035;SDS011;23642;42.658;23.350;2024-03-22T20:12:13;114.17;;;106.50;;
2035;SDS011;23642;42.658;23.350;2024-03-22T20:18:32;116.83;;;109.63;;
2035;SDS011;23642;42.658;23.350;2024-03-22T20:21:18;115.37;;;108.30;;
2035;SDS011;23642;42.658;23.350;2024-03-22T20:23:51;114.47;;;107.23;;